createdAt,value
2017-09-23T00:01:49.467Z,19.60
2017-09-23T00:04:17.000Z,19.47
2017-09-23T00:06:44.584Z,18.27
2017-09-23T00:09:12.114Z,17.87
2017-09-23T00:11:39.647Z,20.00
2017-09-23T00:14:07.231Z,18.63
2017-09-23T00:16:34.772Z,18.40
2017-09-23T00:19:03.070Z,17.97
2017-09-23T00:21:30.638Z,17.90
2017-09-23T00:23:58.193Z,17.97
2017-09-23T00:26:26.485Z,18.50
2017-09-23T00:28:54.048Z,17.90
2017-09-23T00:31:21.580Z,18.90
2017-09-23T00:33:49.116Z,18.20
2017-09-23T00:36:16.691Z,18.50
2017-09-23T00:38:45.011Z,18.70
2017-09-23T00:41:14.235Z,16.58
2017-09-23T00:43:41.811Z,16.70
2017-09-23T00:46:09.368Z,18.67
2017-09-23T00:48:37.571Z,16.47
2017-09-23T00:51:05.894Z,16.83
2017-09-23T00:53:33.426Z,19.58
2017-09-23T00:56:00.951Z,19.00
2017-09-23T00:58:29.319Z,21.73
2017-09-23T01:00:56.843Z,20.27
2017-09-23T01:03:24.374Z,22.77
2017-09-23T01:05:51.931Z,20.97
2017-09-23T01:08:19.467Z,19.87
2017-09-23T01:10:47.772Z,21.83
2017-09-23T01:13:15.538Z,21.20
2017-09-23T01:15:43.071Z,21.60
2017-09-23T01:18:11.371Z,21.07
2017-09-23T01:20:38.950Z,21.43
2017-09-23T01:23:06.484Z,20.17
2017-09-23T01:25:34.015Z,21.43
2017-09-23T01:28:01.573Z,19.57
2017-09-23T01:30:29.115Z,17.80
2017-09-23T01:32:56.648Z,19.53
2017-09-23T01:35:24.211Z,18.57
2017-09-23T01:37:51.743Z,17.53
2017-09-23T01:40:20.032Z,19.07
2017-09-23T01:42:47.599Z,20.50
2017-09-23T01:45:15.531Z,19.00
2017-09-23T01:47:43.844Z,21.17
2017-09-23T01:50:11.938Z,19.58
2017-09-23T01:52:39.471Z,20.55
2017-09-23T01:55:07.003Z,23.27
2017-09-23T01:57:35.331Z,19.73
2017-09-23T02:00:02.864Z,18.43
2017-09-23T02:02:30.507Z,16.50
2017-09-23T02:04:58.086Z,17.60
2017-09-23T02:07:25.628Z,18.17
2017-09-23T02:09:53.163Z,18.50
2017-09-23T02:12:20.711Z,18.23
2017-09-23T02:14:48.243Z,18.27
2017-09-23T02:17:16.455Z,20.05
2017-09-23T02:19:44.067Z,18.07
2017-09-23T02:22:11.600Z,17.43
2017-09-23T02:24:39.144Z,16.30
2017-09-23T02:27:06.760Z,16.70
2017-09-23T02:29:34.291Z,15.87
2017-09-23T02:32:01.828Z,16.40
2017-09-23T02:34:29.380Z,15.67
2017-09-23T02:36:56.907Z,16.20
2017-09-23T02:39:24.448Z,15.60
2017-09-23T02:41:52.019Z,16.10
2017-09-23T02:44:19.561Z,15.50
2017-09-23T02:46:47.132Z,15.77
2017-09-23T02:49:16.459Z,15.35
2017-09-23T02:51:44.280Z,16.17
2017-09-23T02:54:11.812Z,16.80
2017-09-23T02:56:40.147Z,14.77
2017-09-23T02:59:07.679Z,14.97
2017-09-23T03:01:35.980Z,15.30
2017-09-23T03:04:03.541Z,15.20
2017-09-23T03:06:31.075Z,14.53
2017-09-23T03:08:58.605Z,14.47
2017-09-23T03:11:26.183Z,14.30
2017-09-23T03:13:54.478Z,13.90
2017-09-23T03:16:22.011Z,13.57
2017-09-23T03:18:49.571Z,14.90
2017-09-23T03:21:17.106Z,14.17
2017-09-23T03:23:44.651Z,14.90
2017-09-23T03:26:12.264Z,13.90
2017-09-23T03:28:39.802Z,15.07
2017-09-23T03:31:07.336Z,14.57
2017-09-23T03:33:34.919Z,14.07
2017-09-23T03:36:02.454Z,13.48
2017-09-23T03:38:29.996Z,13.43
2017-09-23T03:40:57.559Z,13.87
2017-09-23T03:43:25.100Z,13.47
2017-09-23T03:45:52.641Z,13.62
2017-09-23T03:48:20.995Z,12.57
2017-09-23T03:50:48.531Z,13.82
2017-09-23T03:53:17.467Z,13.65
2017-09-23T03:55:45.080Z,14.27
2017-09-23T03:58:13.546Z,14.27
2017-09-23T04:00:41.071Z,13.13
2017-09-23T04:03:09.401Z,12.77
2017-09-23T04:05:36.928Z,13.13
2017-09-23T04:08:04.455Z,13.65
2017-09-23T04:10:32.038Z,14.87
2017-09-23T04:12:59.579Z,13.50
2017-09-23T04:15:27.115Z,13.57
2017-09-23T04:17:54.701Z,13.60
2017-09-23T04:20:22.244Z,12.50
2017-09-23T04:22:49.783Z,13.17
2017-09-23T04:25:17.464Z,13.63
2017-09-23T04:27:45.036Z,13.73
2017-09-23T04:30:12.584Z,12.27
2017-09-23T04:32:40.233Z,13.30
2017-09-23T04:35:08.556Z,13.47
2017-09-23T04:37:36.904Z,13.23
2017-09-23T04:40:04.501Z,14.05
2017-09-23T04:42:32.035Z,13.97
2017-09-23T04:44:59.575Z,12.60
2017-09-23T04:47:27.139Z,12.33
2017-09-23T04:49:54.723Z,12.73
2017-09-23T04:52:22.257Z,12.17
2017-09-23T04:54:50.404Z,12.97
2017-09-23T04:57:17.943Z,14.80
2017-09-23T04:59:45.472Z,15.52
2017-09-23T05:02:15.455Z,16.37
2017-09-23T05:04:42.985Z,15.57
2017-09-23T05:07:10.523Z,15.30
2017-09-23T05:09:38.847Z,14.23
2017-09-23T05:12:06.508Z,12.60
2017-09-23T05:14:34.109Z,13.30
2017-09-23T05:17:02.439Z,13.30
2017-09-23T05:19:30.013Z,11.70
2017-09-23T05:21:57.592Z,13.00
2017-09-23T05:24:25.239Z,12.70
2017-09-23T05:26:52.767Z,13.43
2017-09-23T05:29:20.307Z,11.65
2017-09-23T05:32:00.318Z,13.73
2017-09-23T05:34:27.863Z,13.56
2017-09-23T05:36:55.419Z,12.80
2017-09-23T05:39:23.007Z,12.47
2017-09-23T05:41:50.539Z,13.13
2017-09-23T05:44:18.127Z,12.80
2017-09-23T05:46:45.808Z,12.37
2017-09-23T05:49:24.530Z,12.37
2017-09-23T05:54:40.363Z,13.10
2017-09-23T05:57:08.628Z,12.10
2017-09-23T05:59:36.163Z,11.90
2017-09-23T06:02:03.754Z,10.90
2017-09-23T06:04:31.287Z,12.47
2017-09-23T06:06:58.823Z,12.30
2017-09-23T06:09:26.428Z,12.10
2017-09-23T06:11:53.968Z,12.77
2017-09-23T06:14:22.277Z,13.75
2017-09-23T06:16:49.849Z,12.43
2017-09-23T06:19:17.387Z,11.60
2017-09-23T06:21:44.931Z,11.60
2017-09-23T06:24:14.216Z,10.98
2017-09-23T06:26:41.761Z,10.93
2017-09-23T06:29:09.302Z,10.83
2017-09-23T06:31:36.872Z,10.07
2017-09-23T06:34:04.411Z,10.90
2017-09-23T06:36:31.982Z,10.57
2017-09-23T06:38:59.571Z,11.00
2017-09-23T06:41:27.196Z,11.12
2017-09-23T06:43:54.729Z,10.20
2017-09-23T06:46:22.375Z,11.90
2017-09-23T06:48:49.939Z,11.50
2017-09-23T06:51:17.480Z,10.52
2017-09-23T06:53:45.834Z,11.03
2017-09-23T06:56:15.450Z,10.77
2017-09-23T06:58:43.790Z,10.53
2017-09-23T07:01:11.339Z,9.97
2017-09-23T07:03:38.999Z,11.00
2017-09-23T07:06:06.533Z,10.85
2017-09-23T07:08:34.875Z,9.70
2017-09-23T07:11:02.436Z,9.97
2017-09-23T07:13:29.959Z,10.30
2017-09-23T07:15:57.519Z,10.30
2017-09-23T07:18:25.057Z,10.40
2017-09-23T07:20:53.351Z,10.20
2017-09-23T07:23:20.961Z,9.98
2017-09-23T07:25:48.510Z,10.10
2017-09-23T07:28:16.563Z,9.83
2017-09-23T07:30:44.410Z,10.30
2017-09-23T07:33:12.007Z,9.30
2017-09-23T07:35:39.540Z,11.07
2017-09-23T07:38:07.100Z,10.53
2017-09-23T07:40:34.739Z,10.57
2017-09-23T07:43:02.275Z,9.47
2017-09-23T07:45:29.836Z,9.90
2017-09-23T07:47:57.395Z,9.10
2017-09-23T07:50:24.939Z,10.20
2017-09-23T07:52:52.552Z,9.30
2017-09-23T07:55:20.098Z,9.93
2017-09-23T07:57:47.663Z,9.00
2017-09-23T08:00:17.843Z,9.10
2017-09-23T08:02:45.403Z,9.00
2017-09-23T08:05:25.347Z,9.30
2017-09-23T08:11:02.764Z,9.50
2017-09-23T08:13:30.300Z,9.93
2017-09-23T08:15:57.827Z,10.60
2017-09-23T08:18:25.394Z,9.83
2017-09-23T08:20:52.941Z,10.17
2017-09-23T08:23:20.487Z,8.97
2017-09-23T08:25:48.065Z,9.73
2017-09-23T08:28:16.418Z,10.77
2017-09-23T08:30:43.947Z,9.93
2017-09-23T08:33:11.539Z,11.10
2017-09-23T08:35:39.079Z,9.77
2017-09-23T08:38:06.607Z,9.67
2017-09-23T08:40:34.171Z,9.27
2017-09-23T08:43:01.711Z,10.00
2017-09-23T08:45:29.242Z,8.90
2017-09-23T08:47:56.854Z,8.87
2017-09-23T08:50:24.503Z,8.77
2017-09-23T08:52:52.037Z,10.53
2017-09-23T08:55:20.739Z,9.98
2017-09-23T08:57:48.273Z,9.70
2017-09-23T09:00:17.418Z,9.74
2017-09-23T09:02:45.610Z,9.90
2017-09-23T09:05:15.508Z,10.25
2017-09-23T09:07:43.038Z,9.90
2017-09-23T09:10:10.599Z,11.88
2017-09-23T09:12:38.139Z,11.20
2017-09-23T09:15:06.448Z,11.47
2017-09-23T09:17:34.036Z,11.37
2017-09-23T09:20:01.567Z,11.60
2017-09-23T09:22:29.099Z,12.88
2017-09-23T09:24:56.660Z,12.20
2017-09-23T09:27:24.985Z,11.97
2017-09-23T09:29:52.524Z,11.87
2017-09-23T09:32:22.264Z,17.75
2017-09-23T09:34:51.037Z,13.97
2017-09-23T09:37:19.039Z,16.25
2017-09-23T09:39:46.655Z,14.13
2017-09-23T09:42:16.288Z,14.87
2017-09-23T09:44:43.819Z,14.10
2017-09-23T09:47:11.378Z,15.00
2017-09-23T09:49:38.914Z,17.17
2017-09-23T09:52:07.220Z,16.17
2017-09-23T09:54:34.779Z,16.23
2017-09-23T09:57:02.324Z,17.67
2017-09-23T09:59:29.855Z,18.40
2017-09-23T10:01:57.478Z,19.43
2017-09-23T10:04:25.356Z,18.37
2017-09-23T10:06:52.889Z,19.77
2017-09-23T10:09:22.226Z,18.40
2017-09-23T10:11:49.762Z,17.13
2017-09-23T10:14:17.309Z,17.93
2017-09-23T10:16:44.883Z,18.90
2017-09-23T10:19:12.556Z,20.00
2017-09-23T10:21:40.366Z,21.57
2017-09-23T10:24:08.731Z,21.30
2017-09-23T10:26:36.267Z,22.43
2017-09-23T10:29:03.796Z,22.30
2017-09-23T10:31:31.419Z,22.93
2017-09-23T10:33:58.984Z,23.47
2017-09-23T10:36:27.447Z,22.17
2017-09-23T10:38:55.006Z,22.07
2017-09-23T10:41:23.228Z,23.98
2017-09-23T10:43:50.773Z,21.80
2017-09-23T10:46:18.374Z,20.60
2017-09-23T10:48:45.937Z,22.33
2017-09-23T10:51:15.371Z,21.20
2017-09-23T10:53:42.935Z,21.37
2017-09-23T10:56:10.475Z,20.50
2017-09-23T10:58:42.830Z,20.33
2017-09-23T11:01:10.422Z,22.23
2017-09-23T11:03:38.036Z,22.30
2017-09-23T11:06:10.163Z,22.75
2017-09-23T11:08:40.166Z,22.00
2017-09-23T11:11:07.703Z,21.70
2017-09-23T11:13:35.447Z,22.60
2017-09-23T11:16:03.784Z,20.90
2017-09-23T11:18:33.559Z,23.77
2017-09-23T11:21:01.099Z,24.13
2017-09-23T11:23:29.423Z,22.73
2017-09-23T11:25:57.722Z,22.27
2017-09-23T11:28:27.044Z,21.98
2017-09-23T11:30:54.655Z,21.93
2017-09-23T11:33:22.194Z,22.10
2017-09-23T11:35:49.727Z,20.30
2017-09-23T11:38:17.291Z,20.47
2017-09-23T11:40:44.823Z,21.70
2017-09-23T11:43:12.384Z,22.10
2017-09-23T11:45:40.706Z,22.60
2017-09-23T11:48:08.243Z,22.63
2017-09-23T11:50:35.774Z,23.00
2017-09-23T11:53:03.367Z,22.80
2017-09-23T11:55:31.663Z,23.33
2017-09-23T11:57:59.193Z,23.03
2017-09-23T12:00:26.749Z,22.20
2017-09-23T12:02:54.284Z,23.20
2017-09-23T12:05:21.819Z,23.03
2017-09-23T12:07:49.964Z,22.73
2017-09-23T12:10:17.501Z,22.02
2017-09-23T12:12:45.051Z,21.33
2017-09-23T12:15:12.763Z,20.97
2017-09-23T12:17:40.522Z,21.40
2017-09-23T12:20:08.053Z,21.30
2017-09-23T12:22:35.616Z,21.87
2017-09-23T12:25:03.155Z,21.93
2017-09-23T12:27:31.455Z,25.50
2017-09-23T12:29:59.015Z,21.50
2017-09-23T12:32:26.556Z,26.00
2017-09-23T12:34:54.091Z,29.60
2017-09-23T12:37:21.702Z,25.50
2017-09-23T12:39:49.240Z,27.13
2017-09-23T12:42:17.548Z,26.53
2017-09-23T12:44:45.107Z,28.27
2017-09-23T12:47:12.636Z,23.67
2017-09-23T12:49:40.168Z,25.80
2017-09-23T12:52:07.727Z,24.93
2017-09-23T12:54:35.310Z,24.70
2017-09-23T12:57:03.610Z,24.80
2017-09-23T12:59:31.194Z,25.27
2017-09-23T13:01:58.724Z,24.30
2017-09-23T13:04:26.287Z,21.80
2017-09-23T13:06:53.871Z,23.17
2017-09-23T13:09:21.627Z,22.70
2017-09-23T13:11:49.227Z,20.20
2017-09-23T13:14:16.800Z,21.23
2017-09-23T13:16:44.330Z,21.80
2017-09-23T13:19:11.859Z,22.10
2017-09-23T13:21:39.550Z,20.90
2017-09-23T13:24:07.108Z,24.37
2017-09-23T13:26:34.647Z,21.47
2017-09-23T13:29:02.226Z,22.20
2017-09-23T13:31:29.756Z,23.93
2017-09-23T13:33:57.289Z,23.07
2017-09-23T13:36:25.614Z,22.80
2017-09-23T13:38:53.150Z,23.30
2017-09-23T13:41:20.680Z,22.30
2017-09-23T13:43:48.267Z,21.60
2017-09-23T13:46:17.280Z,20.63
2017-09-23T13:48:44.825Z,21.60
2017-09-23T13:51:12.404Z,21.63
2017-09-23T13:53:39.939Z,22.50
2017-09-23T13:56:07.555Z,24.35
2017-09-23T13:58:35.116Z,22.97
2017-09-23T14:01:03.090Z,21.58
2017-09-23T14:03:32.137Z,21.97
2017-09-23T14:05:59.729Z,22.20
2017-09-23T14:08:27.269Z,21.00
2017-09-23T14:10:54.838Z,26.20
2017-09-23T14:13:22.406Z,20.73
2017-09-23T14:15:49.943Z,21.20
2017-09-23T14:18:17.475Z,22.33
2017-09-23T14:20:45.800Z,21.57
2017-09-23T14:23:26.184Z,20.37
2017-09-23T14:29:19.259Z,25.63
2017-09-23T14:31:46.815Z,24.47
2017-09-23T14:34:16.309Z,24.97
2017-09-23T14:36:43.924Z,28.53
2017-09-23T14:39:11.579Z,26.73
2017-09-23T14:41:39.900Z,25.90
2017-09-23T14:44:07.521Z,25.30
2017-09-23T14:46:35.104Z,25.00
2017-09-23T14:49:02.665Z,24.43
2017-09-23T14:51:30.280Z,25.95
2017-09-23T14:53:57.873Z,27.37
2017-09-23T14:56:25.446Z,26.13
2017-09-23T14:58:53.084Z,23.50
2017-09-23T15:01:21.438Z,23.42
2017-09-23T15:03:49.003Z,21.92
2017-09-23T15:06:16.650Z,27.20
2017-09-23T15:08:44.273Z,27.87
2017-09-23T15:11:12.494Z,25.83
2017-09-23T15:13:40.916Z,24.83
2017-09-23T15:16:08.520Z,23.75
2017-09-23T15:18:36.132Z,24.87
2017-09-23T15:21:04.137Z,26.70
2017-09-23T15:23:31.890Z,26.15
2017-09-23T15:26:00.277Z,27.30
2017-09-23T15:28:27.961Z,25.57
2017-09-23T15:30:55.576Z,27.13
2017-09-23T15:33:23.177Z,27.60
2017-09-23T15:35:51.076Z,26.53
2017-09-23T15:38:19.418Z,25.85
2017-09-23T15:40:46.984Z,25.70
2017-09-23T15:43:16.376Z,25.58
2017-09-23T15:45:43.959Z,27.53
2017-09-23T15:48:11.708Z,26.42
2017-09-23T15:50:39.455Z,26.97
2017-09-23T15:53:07.821Z,27.37
2017-09-23T15:55:36.617Z,26.77
2017-09-23T15:58:05.566Z,28.20
2017-09-23T16:00:34.020Z,26.33
2017-09-23T16:03:01.653Z,25.80
2017-09-23T16:05:29.299Z,25.37
2017-09-23T16:07:57.440Z,26.40
2017-09-23T16:10:26.610Z,26.60
2017-09-23T16:12:55.027Z,28.83
2017-09-23T16:15:23.343Z,28.25
2017-09-23T16:17:50.884Z,26.60
2017-09-23T16:20:19.316Z,27.42
2017-09-23T16:22:46.876Z,26.60
2017-09-23T16:25:16.827Z,27.18
2017-09-23T16:27:45.159Z,26.15
2017-09-23T16:30:12.939Z,25.30
2017-09-23T16:32:40.544Z,26.40
2017-09-23T16:35:08.220Z,27.17
2017-09-23T16:37:35.761Z,26.17
2017-09-23T16:40:03.312Z,27.80
2017-09-23T16:42:31.688Z,27.20
2017-09-23T16:44:59.252Z,27.70
2017-09-23T16:47:27.572Z,27.77
2017-09-23T16:49:55.919Z,29.40
2017-09-23T16:52:23.480Z,30.17
2017-09-23T16:54:51.784Z,29.80
2017-09-23T16:57:20.143Z,31.47
2017-09-23T16:59:47.696Z,31.27
2017-09-23T17:02:17.239Z,32.20
2017-09-23T17:04:44.864Z,36.13
2017-09-23T17:07:12.424Z,33.00
2017-09-23T17:09:39.985Z,30.50
2017-09-23T17:12:08.335Z,33.40
2017-09-23T17:14:36.361Z,32.27
2017-09-23T17:17:03.912Z,34.03
2017-09-23T17:19:31.480Z,32.05
2017-09-23T17:21:59.040Z,35.03
2017-09-23T17:24:26.861Z,34.30
2017-09-23T17:26:54.534Z,35.30
2017-09-23T17:29:22.084Z,32.10
2017-09-23T17:31:50.407Z,34.47
2017-09-23T17:34:17.993Z,32.50
2017-09-23T17:36:45.548Z,32.10
2017-09-23T17:39:14.696Z,30.65
2017-09-23T17:41:42.303Z,32.57
2017-09-23T17:44:09.856Z,31.83
2017-09-23T17:46:37.412Z,35.30
2017-09-23T17:49:05.024Z,32.73
2017-09-23T17:51:32.603Z,33.38
2017-09-23T17:54:00.157Z,38.00
2017-09-23T17:56:27.749Z,32.03
2017-09-23T17:58:55.310Z,31.13
2017-09-23T18:01:22.872Z,33.33
2017-09-23T18:03:50.509Z,33.30
2017-09-23T18:06:18.068Z,28.83
2017-09-23T18:08:45.616Z,31.90
2017-09-23T18:11:14.629Z,32.80
2017-09-23T18:13:42.189Z,38.57
2017-09-23T18:16:09.777Z,35.90
2017-09-23T18:18:37.348Z,28.47
2017-09-23T18:21:04.885Z,30.87
2017-09-23T18:23:32.432Z,34.25
2017-09-23T18:25:59.996Z,31.23
2017-09-23T18:28:27.540Z,31.27
2017-09-23T18:30:55.097Z,29.23
2017-09-23T18:33:22.715Z,30.08
2017-09-23T18:35:50.251Z,31.40
2017-09-23T18:38:18.713Z,27.37
2017-09-23T18:40:46.287Z,30.13
2017-09-23T18:43:15.484Z,31.27
2017-09-23T18:45:43.019Z,31.50
2017-09-23T18:48:10.599Z,35.55
2017-09-23T18:50:38.131Z,36.43
2017-09-23T18:53:05.674Z,35.47
2017-09-23T18:55:33.263Z,36.73
2017-09-23T18:58:00.795Z,33.40
2017-09-23T19:00:29.152Z,33.53
2017-09-23T19:02:56.704Z,34.70
2017-09-23T19:05:24.233Z,35.30
2017-09-23T19:07:51.771Z,33.43
2017-09-23T19:10:19.398Z,28.97
2017-09-23T19:12:46.998Z,30.93
2017-09-23T19:15:15.541Z,32.47
2017-09-23T19:17:43.171Z,31.23
2017-09-23T19:20:10.755Z,30.17
2017-09-23T19:22:38.400Z,33.03
2017-09-23T19:25:06.046Z,31.10
2017-09-23T19:27:33.615Z,35.33
2017-09-23T19:30:01.197Z,31.60
2017-09-23T19:32:28.759Z,33.55
2017-09-23T19:34:56.396Z,33.40
2017-09-23T19:37:23.939Z,38.40
2017-09-23T19:39:51.526Z,38.05
2017-09-23T19:42:19.236Z,37.70
2017-09-23T19:44:47.583Z,37.53
2017-09-23T19:47:17.297Z,37.38
2017-09-23T19:49:44.835Z,39.83
2017-09-23T19:52:12.444Z,36.37
2017-09-23T19:54:40.846Z,38.43
2017-09-23T19:57:08.438Z,38.87
2017-09-23T19:59:35.967Z,38.50
2017-09-23T20:02:03.669Z,41.67
2017-09-23T20:04:31.359Z,49.47
2017-09-23T20:06:58.968Z,38.37
2017-09-23T20:09:26.581Z,36.87
2017-09-23T20:11:54.135Z,41.83
2017-09-23T20:14:21.671Z,40.40
2017-09-23T20:16:49.310Z,41.67
2017-09-23T20:19:16.979Z,40.70
2017-09-23T20:21:44.535Z,39.53
2017-09-23T20:24:12.595Z,46.30
2017-09-23T20:26:40.132Z,45.28
2017-09-23T20:29:07.668Z,45.20
2017-09-23T20:31:35.228Z,42.70
2017-09-23T20:34:02.778Z,43.37
2017-09-23T20:36:30.322Z,42.17
2017-09-23T20:38:57.882Z,41.27
2017-09-23T20:41:25.416Z,41.07
2017-09-23T20:43:52.950Z,41.97
2017-09-23T20:46:20.537Z,38.63
2017-09-23T20:48:48.075Z,47.27
2017-09-23T20:51:17.200Z,54.10
2017-09-23T20:53:44.781Z,49.37
2017-09-23T20:56:12.307Z,46.40
2017-09-23T20:58:39.852Z,46.57
2017-09-23T21:01:07.455Z,46.50
2017-09-23T21:03:34.987Z,45.80
2017-09-23T21:06:02.524Z,42.83
2017-09-23T21:08:30.116Z,44.87
2017-09-23T21:10:58.020Z,40.07
2017-09-23T21:13:25.563Z,44.58
2017-09-23T21:15:53.127Z,44.40
2017-09-23T21:18:20.660Z,46.40
2017-09-23T21:20:48.624Z,46.30
2017-09-23T21:23:17.237Z,46.67
2017-09-23T21:25:44.767Z,45.37
2017-09-23T21:28:12.295Z,41.20
2017-09-23T21:30:39.883Z,44.43
2017-09-23T21:33:07.427Z,46.42
2017-09-23T21:35:35.728Z,43.80
2017-09-23T21:38:03.310Z,45.53
2017-09-23T21:40:30.919Z,41.70
2017-09-23T21:42:58.455Z,41.83
2017-09-23T21:45:26.011Z,42.50
2017-09-23T21:47:53.543Z,42.47
2017-09-23T21:50:21.081Z,40.87
2017-09-23T21:52:48.677Z,39.53
2017-09-23T21:55:16.474Z,43.37
2017-09-23T21:57:44.007Z,46.23
2017-09-23T22:00:11.577Z,41.65
2017-09-23T22:02:39.114Z,44.17
2017-09-23T22:05:06.644Z,40.77
2017-09-23T22:07:34.223Z,40.70
2017-09-23T22:10:01.755Z,43.90
2017-09-23T22:12:29.290Z,43.17
2017-09-23T22:14:56.912Z,43.83
2017-09-23T22:17:24.447Z,43.67
2017-09-23T22:19:51.987Z,43.43
2017-09-23T22:22:20.192Z,45.80
2017-09-23T22:24:47.731Z,44.03
2017-09-23T22:27:17.253Z,43.95
2017-09-23T22:29:44.821Z,44.27
2017-09-23T22:32:12.373Z,46.57
2017-09-23T22:34:40.004Z,45.83
2017-09-23T22:37:07.771Z,45.53
2017-09-23T22:39:36.136Z,51.07
2017-09-23T22:42:03.736Z,50.20
2017-09-23T22:44:31.372Z,45.07
2017-09-23T22:46:59.848Z,45.13
2017-09-23T22:49:27.544Z,46.47
2017-09-23T22:51:55.213Z,47.90
2017-09-23T22:54:23.620Z,47.97
2017-09-23T22:56:51.220Z,49.77
2017-09-23T22:59:19.700Z,43.97
2017-09-23T23:01:47.332Z,43.80
2017-09-23T23:04:17.310Z,45.75
2017-09-23T23:06:45.067Z,42.87
2017-09-23T23:09:12.686Z,50.10
2017-09-23T23:11:40.364Z,43.63
2017-09-23T23:14:08.893Z,46.10
2017-09-23T23:16:36.480Z,43.33
2017-09-23T23:19:04.037Z,45.00
2017-09-23T23:21:31.736Z,46.22
2017-09-23T23:24:00.444Z,44.40
2017-09-23T23:26:28.056Z,45.67
2017-09-23T23:28:55.681Z,45.33
2017-09-23T23:31:23.266Z,45.97
2017-09-23T23:33:50.819Z,43.23
2017-09-23T23:36:18.420Z,42.20
2017-09-23T23:38:46.051Z,41.03
2017-09-23T23:41:24.468Z,39.83
2017-09-23T23:48:33.230Z,42.20
2017-09-23T23:51:00.830Z,39.90
2017-09-23T23:53:28.556Z,43.83
2017-09-23T23:55:56.152Z,43.40
2017-09-23T23:58:23.727Z,43.67
